createdAt,value
2022-09-14T00:01:14.468Z,97938.97
2022-09-14T00:03:40.358Z,97939.66
2022-09-14T00:06:11.130Z,97936.75
2022-09-14T00:08:38.420Z,97941.81
2022-09-14T00:11:11.887Z,97931.91
2022-09-14T00:13:41.588Z,97922.38
2022-09-14T00:16:16.107Z,97925.03
2022-09-14T00:18:43.418Z,97915.34
2022-09-14T00:21:12.013Z,97911.84
2022-09-14T00:23:40.520Z,97922.22
2022-09-14T00:26:11.841Z,97914.38
2022-09-14T00:28:43.925Z,97919.44
2022-09-14T00:31:11.878Z,97912.16
2022-09-14T00:33:41.128Z,97905.28
2022-09-14T00:36:10.969Z,97900.94
2022-09-14T00:38:39.117Z,97901.19
2022-09-14T00:41:07.804Z,97901.31
2022-09-14T00:44:01.910Z,97884.66
2022-09-14T00:46:32.354Z,97889.25
2022-09-14T00:49:01.745Z,97889.00
2022-09-14T00:51:33.065Z,97884.91
2022-09-14T00:54:04.199Z,97893.63
2022-09-14T00:56:31.293Z,97889.25
2022-09-14T00:59:00.106Z,97888.28
2022-09-14T01:01:27.331Z,97893.34
2022-09-14T01:03:54.217Z,97890.25
2022-09-14T01:06:48.849Z,97892.06
2022-09-14T01:09:32.262Z,97891.91
2022-09-14T01:12:13.905Z,97892.91
2022-09-14T01:15:05.501Z,97890.38
2022-09-14T01:18:04.539Z,97877.19
2022-09-14T01:20:39.873Z,97871.19
2022-09-14T01:23:29.547Z,97875.38
2022-09-14T01:26:40.432Z,97871.75
2022-09-14T01:29:17.967Z,97864.03
2022-09-14T01:31:57.750Z,97873.97
2022-09-14T01:34:31.946Z,97874.78
2022-09-14T01:37:06.327Z,97869.59
2022-09-14T01:39:36.118Z,97871.56
2022-09-14T01:42:04.257Z,97865.78
2022-09-14T01:44:42.068Z,97870.53
2022-09-14T01:47:26.505Z,97873.00
2022-09-14T01:49:59.251Z,97873.09
2022-09-14T01:52:34.074Z,97875.31
2022-09-14T01:55:11.354Z,97868.69
2022-09-14T01:57:46.325Z,97870.78
2022-09-14T02:00:17.571Z,97866.81
2022-09-14T02:03:03.960Z,97869.00
2022-09-14T02:05:40.551Z,97870.13
2022-09-14T02:08:08.891Z,97862.53
2022-09-14T02:10:35.834Z,97862.91
2022-09-14T02:13:02.736Z,97857.13
2022-09-14T02:15:29.778Z,97854.59
2022-09-14T02:17:56.541Z,97850.13
2022-09-14T02:20:52.744Z,97849.16
2022-09-14T02:23:19.865Z,97847.91
2022-09-14T02:25:47.597Z,97842.50
2022-09-14T02:28:14.639Z,97841.78
2022-09-14T02:31:18.613Z,97844.53
2022-09-14T02:34:03.094Z,97838.53
2022-09-14T02:36:54.174Z,97844.81
2022-09-14T02:39:56.319Z,97839.22
2022-09-14T02:42:24.022Z,97844.81
2022-09-14T02:45:16.606Z,97843.59
2022-09-14T02:48:12.911Z,97845.97
2022-09-14T02:51:05.693Z,97837.16
2022-09-14T02:53:50.679Z,97847.81
2022-09-14T02:56:19.397Z,97842.69
2022-09-14T02:58:46.573Z,97841.00
2022-09-14T03:01:19.143Z,97846.91
2022-09-14T03:03:46.084Z,97840.75
2022-09-14T03:06:13.685Z,97843.28
2022-09-14T03:08:40.943Z,97826.88
2022-09-14T03:11:07.746Z,97833.88
2022-09-14T03:13:35.908Z,97841.84
2022-09-14T03:16:14.892Z,97839.44
2022-09-14T03:18:42.398Z,97820.84
2022-09-14T03:21:15.617Z,97834.41
2022-09-14T03:23:48.383Z,97823.16
2022-09-14T03:26:20.648Z,97825.81
2022-09-14T03:28:51.511Z,97821.50
2022-09-14T03:31:18.896Z,97828.38
2022-09-14T03:33:45.844Z,97821.88
2022-09-14T03:36:18.645Z,97819.06
2022-09-14T03:38:48.324Z,97814.75
2022-09-14T03:41:16.017Z,97816.69
2022-09-14T03:43:43.520Z,97819.59
2022-09-14T03:46:21.482Z,97824.91
2022-09-14T03:48:49.148Z,97817.88
2022-09-14T03:51:16.656Z,97820.31
2022-09-14T03:53:45.250Z,97826.72
2022-09-14T03:56:15.741Z,97830.25
2022-09-14T03:58:43.962Z,97827.44
2022-09-14T04:01:14.569Z,97837.97
2022-09-14T04:03:42.094Z,97841.22
2022-09-14T04:06:10.156Z,97844.44
2022-09-14T04:08:40.253Z,97841.66
2022-09-14T04:11:22.273Z,97841.44
2022-09-14T04:13:50.162Z,97843.25
2022-09-14T04:16:18.883Z,97842.75
2022-09-14T04:18:45.879Z,97838.59
2022-09-14T04:21:16.276Z,97834.84
2022-09-14T04:24:03.477Z,97840.88
2022-09-14T04:26:31.705Z,97835.56
2022-09-14T04:28:59.285Z,97832.78
2022-09-14T04:31:26.599Z,97823.72
2022-09-14T04:33:57.192Z,97820.78
2022-09-14T04:36:28.644Z,97823.19
2022-09-14T04:38:58.879Z,97817.75
2022-09-14T04:41:26.119Z,97822.94
2022-09-14T04:43:54.405Z,97823.50
2022-09-14T04:46:24.231Z,97822.88
2022-09-14T04:48:51.620Z,97822.59
2022-09-14T04:51:20.898Z,97828.22
2022-09-14T04:53:52.907Z,97830.38
2022-09-14T04:56:22.667Z,97833.94
2022-09-14T04:58:52.638Z,97828.06
2022-09-14T05:01:22.108Z,97833.88
2022-09-14T05:03:49.972Z,97827.88
2022-09-14T05:06:19.638Z,97826.63
2022-09-14T05:08:46.748Z,97833.72
2022-09-14T05:11:19.697Z,97834.81
2022-09-14T05:13:49.952Z,97828.06
2022-09-14T05:16:23.662Z,97826.28
2022-09-14T05:18:51.894Z,97828.38
2022-09-14T05:21:20.699Z,97830.00
2022-09-14T05:23:48.192Z,97826.25
2022-09-14T05:26:15.197Z,97827.47
2022-09-14T05:28:42.161Z,97820.53
2022-09-14T05:31:11.146Z,97824.22
2022-09-14T05:33:38.170Z,97824.78
2022-09-14T05:36:07.027Z,97834.88
2022-09-14T05:38:36.303Z,97819.84
2022-09-14T05:41:04.429Z,97822.59
2022-09-14T05:43:31.350Z,97828.47
2022-09-14T05:46:02.962Z,97830.69
2022-09-14T05:48:34.772Z,97822.03
2022-09-14T05:51:04.403Z,97789.06
2022-09-14T05:53:31.392Z,97819.13
2022-09-14T05:56:08.134Z,97814.13
2022-09-14T05:58:36.767Z,97813.72
2022-09-14T06:01:24.363Z,97806.94
2022-09-14T06:03:54.717Z,97804.59
2022-09-14T06:06:22.249Z,97809.53
2022-09-14T06:08:52.690Z,97811.66
2022-09-14T06:11:23.206Z,97811.47
2022-09-14T06:13:50.529Z,97810.53
2022-09-14T06:16:19.726Z,97810.25
2022-09-14T06:18:48.029Z,97809.94
2022-09-14T06:21:16.852Z,97802.34
2022-09-14T06:23:44.453Z,97795.19
2022-09-14T06:26:12.350Z,97791.66
2022-09-14T06:28:39.552Z,97803.00
2022-09-14T06:31:07.866Z,97798.97
2022-09-14T06:33:35.714Z,97798.81
2022-09-14T06:36:07.518Z,97799.31
2022-09-14T06:38:34.334Z,97814.22
2022-09-14T06:41:04.848Z,97807.44
2022-09-14T06:43:34.134Z,97787.19
2022-09-14T06:46:01.992Z,97803.97
2022-09-14T06:48:31.779Z,97794.34
2022-09-14T06:50:58.465Z,97797.94
2022-09-14T06:53:25.362Z,97794.72
2022-09-14T06:55:53.283Z,97795.81
2022-09-14T06:58:20.051Z,97791.47
2022-09-14T07:00:47.011Z,97801.28
2022-09-14T07:03:14.069Z,97812.28
2022-09-14T07:05:40.875Z,97806.75
2022-09-14T07:08:11.969Z,97801.91
2022-09-14T07:10:39.314Z,97806.00
2022-09-14T07:13:06.090Z,97815.28
2022-09-14T07:15:33.464Z,97811.59
2022-09-14T07:18:00.468Z,97804.19
2022-09-14T07:20:27.407Z,97813.31
2022-09-14T07:22:54.166Z,97807.75
2022-09-14T07:25:21.190Z,97807.94
2022-09-14T07:27:48.087Z,97810.31
2022-09-14T07:30:14.855Z,97803.22
2022-09-14T07:32:41.851Z,97810.00
2022-09-14T07:35:08.930Z,97804.41
2022-09-14T07:37:35.742Z,97807.84
2022-09-14T07:40:02.778Z,97814.69
2022-09-14T07:42:29.722Z,97786.31
2022-09-14T07:44:56.446Z,97821.31
2022-09-14T07:47:23.415Z,97815.91
2022-09-14T07:49:50.184Z,97814.34
2022-09-14T07:52:17.155Z,97815.38
2022-09-14T07:54:44.393Z,97796.34
2022-09-14T07:57:11.313Z,97807.63
2022-09-14T07:59:38.493Z,97818.63
2022-09-14T08:02:11.160Z,97806.97
2022-09-14T08:04:41.020Z,97810.56
2022-09-14T08:07:08.566Z,97816.06
2022-09-14T08:09:39.514Z,97821.84
2022-09-14T08:12:06.582Z,97817.25
2022-09-14T08:14:33.777Z,97804.09
2022-09-14T08:17:01.068Z,97814.59
2022-09-14T08:19:28.043Z,97800.09
2022-09-14T08:21:55.079Z,97810.41
2022-09-14T08:24:22.084Z,97814.44
2022-09-14T08:26:49.284Z,97808.97
2022-09-14T08:29:17.823Z,97807.25
2022-09-14T08:31:46.160Z,97817.84
2022-09-14T08:34:14.253Z,97828.91
2022-09-14T08:36:42.649Z,97825.06
2022-09-14T08:39:11.647Z,97826.59
2022-09-14T08:41:41.374Z,97827.59
2022-09-14T08:44:31.019Z,97826.91
2022-09-14T08:47:05.087Z,97821.16
2022-09-14T08:49:53.848Z,97822.41
2022-09-14T08:52:35.847Z,97812.41
2022-09-14T08:55:23.428Z,97817.28
2022-09-14T08:58:14.956Z,97812.91
2022-09-14T09:00:48.894Z,97802.03
2022-09-14T09:03:36.537Z,97806.38
2022-09-14T09:06:15.586Z,97806.50
2022-09-14T09:08:49.911Z,97784.44
2022-09-14T09:11:22.471Z,97812.19
2022-09-14T09:13:52.120Z,97813.19
2022-09-14T09:16:23.623Z,97802.34
2022-09-14T09:19:05.768Z,97807.00
2022-09-14T09:21:38.580Z,97797.06
2022-09-14T09:24:37.518Z,97786.34
2022-09-14T09:27:12.066Z,97782.53
2022-09-14T09:29:39.027Z,97788.03
2022-09-14T09:32:09.881Z,97785.94
2022-09-14T09:34:36.726Z,97789.44
2022-09-14T09:37:04.373Z,97779.31
2022-09-14T09:39:31.893Z,97789.97
2022-09-14T09:42:06.741Z,97781.97
2022-09-14T09:45:04.039Z,97787.00
2022-09-14T09:47:37.887Z,97796.66
2022-09-14T09:50:13.908Z,97782.69
2022-09-14T09:52:54.393Z,97781.16
2022-09-14T09:55:26.156Z,97777.38
2022-09-14T09:57:54.749Z,97773.81
2022-09-14T10:00:27.261Z,97765.94
2022-09-14T10:02:54.921Z,97767.53
2022-09-14T10:05:24.002Z,97776.94
2022-09-14T10:07:50.622Z,97768.06
2022-09-14T10:10:21.931Z,97761.34
2022-09-14T10:12:56.580Z,97761.81
2022-09-14T10:15:30.727Z,97773.91
2022-09-14T10:18:00.504Z,97775.63
2022-09-14T10:20:27.979Z,97776.78
2022-09-14T10:22:54.859Z,97777.13
2022-09-14T10:25:26.102Z,97783.22
2022-09-14T10:27:56.164Z,97783.19
2022-09-14T10:30:32.529Z,97774.31
2022-09-14T10:33:02.754Z,97777.06
2022-09-14T10:35:40.307Z,97770.66
2022-09-14T10:38:23.463Z,97764.09
2022-09-14T10:41:06.878Z,97776.06
2022-09-14T10:43:52.174Z,97765.72
2022-09-14T10:46:29.655Z,97765.09
2022-09-14T10:49:27.588Z,97767.25
2022-09-14T10:52:17.810Z,97765.63
2022-09-14T10:55:01.716Z,97771.06
2022-09-14T10:57:57.085Z,97774.84
2022-09-14T11:00:24.263Z,97770.47
2022-09-14T11:03:17.527Z,97775.66
2022-09-14T11:05:56.880Z,97773.16
2022-09-14T11:08:33.215Z,97779.84
2022-09-14T11:11:31.780Z,97757.75
2022-09-14T11:14:05.936Z,97771.22
2022-09-14T11:16:53.996Z,97782.44
2022-09-14T11:20:00.065Z,97764.91
2022-09-14T11:23:00.766Z,97766.00
2022-09-14T11:25:48.165Z,97763.06
2022-09-14T11:28:40.935Z,97760.81
2022-09-14T11:31:16.440Z,97760.34
2022-09-14T11:33:54.182Z,97766.41
2022-09-14T11:36:28.556Z,97751.59
2022-09-14T11:39:13.246Z,97765.44
2022-09-14T11:41:45.480Z,97756.69
2022-09-14T11:44:18.027Z,97761.28
2022-09-14T11:47:04.042Z,97735.63
2022-09-14T11:49:44.395Z,97744.88
2022-09-14T11:52:21.161Z,97730.41
2022-09-14T11:54:50.158Z,97738.41
2022-09-14T11:57:20.548Z,97727.63
2022-09-14T11:59:50.784Z,97727.72
2022-09-14T12:02:25.320Z,97732.72
2022-09-14T12:05:07.376Z,97735.06
2022-09-14T12:07:59.946Z,97733.44
2022-09-14T12:10:27.813Z,97723.03
2022-09-14T12:12:57.154Z,97738.53
2022-09-14T12:15:27.020Z,97730.41
2022-09-14T12:18:24.168Z,97734.72
2022-09-14T12:21:02.658Z,97732.16
2022-09-14T12:23:44.232Z,97719.94
2022-09-14T12:26:11.227Z,97723.75
2022-09-14T12:28:38.104Z,97718.16
2022-09-14T12:31:05.160Z,97716.09
2022-09-14T12:33:32.323Z,97713.16
2022-09-14T12:36:00.075Z,97713.25
2022-09-14T12:38:29.843Z,97718.72
2022-09-14T12:41:02.423Z,97714.53
2022-09-14T12:43:35.337Z,97707.06
2022-09-14T12:46:09.815Z,97714.72
2022-09-14T12:48:45.933Z,97720.28
2022-09-14T12:51:27.175Z,97714.94
2022-09-14T12:53:58.157Z,97714.47
2022-09-14T12:56:41.620Z,97712.31
2022-09-14T12:59:26.794Z,97715.47
2022-09-14T13:02:21.924Z,97715.09
2022-09-14T13:04:54.244Z,97720.22
2022-09-14T13:07:22.977Z,97711.00
2022-09-14T13:09:52.705Z,97717.13
2022-09-14T13:12:41.397Z,97746.59
2022-09-14T13:15:18.981Z,97729.78
2022-09-14T13:18:18.072Z,97727.31
2022-09-14T13:20:53.894Z,97743.13
2022-09-14T13:23:28.540Z,97738.41
2022-09-14T13:25:56.248Z,97706.94
2022-09-14T13:28:31.131Z,97728.88
2022-09-14T13:31:01.496Z,97720.63
2022-09-14T13:33:31.465Z,97731.44
2022-09-14T13:36:01.701Z,97720.75
2022-09-14T13:38:34.817Z,97726.84
2022-09-14T13:41:08.405Z,97727.22
2022-09-14T13:43:35.524Z,97729.44
2022-09-14T13:46:02.730Z,97712.88
2022-09-14T13:48:29.693Z,97717.75
2022-09-14T13:50:56.851Z,97707.06
2022-09-14T13:53:51.006Z,97694.28
2022-09-14T13:56:19.495Z,97705.69
2022-09-14T13:58:48.977Z,97706.53
2022-09-14T14:01:40.609Z,97701.66
2022-09-14T14:04:25.638Z,97698.63
2022-09-14T14:07:05.420Z,97699.44
2022-09-14T14:09:50.716Z,97705.44
2022-09-14T14:12:27.980Z,97674.09
2022-09-14T14:14:58.020Z,97690.81
2022-09-14T14:17:27.725Z,97697.47
2022-09-14T14:19:57.358Z,97699.63
2022-09-14T14:22:35.611Z,97700.44
2022-09-14T14:25:19.172Z,97697.38
2022-09-14T14:27:47.780Z,97696.97
2022-09-14T14:30:16.409Z,97697.88
2022-09-14T14:32:43.490Z,97711.00
2022-09-14T14:35:20.102Z,97708.31
2022-09-14T14:37:47.945Z,97704.31
2022-09-14T14:40:16.393Z,97706.09
2022-09-14T14:42:44.227Z,97701.50
2022-09-14T14:45:35.417Z,97701.22
2022-09-14T14:48:03.850Z,97711.13
2022-09-14T14:50:34.071Z,97703.50
2022-09-14T14:53:01.982Z,97694.19
2022-09-14T14:55:32.395Z,97706.22
2022-09-14T14:58:02.593Z,97691.53
2022-09-14T15:00:34.242Z,97685.72
2022-09-14T15:03:01.664Z,97702.25
2022-09-14T15:05:28.771Z,97674.56
2022-09-14T15:07:56.227Z,97688.28
2022-09-14T15:10:25.874Z,97703.41
2022-09-14T15:12:52.668Z,97691.91
2022-09-14T15:15:23.978Z,97682.56
2022-09-14T15:17:51.951Z,97692.69
2022-09-14T15:20:19.955Z,97700.09
2022-09-14T15:22:48.275Z,97696.75
2022-09-14T15:25:17.229Z,97698.69
2022-09-14T15:27:44.222Z,97712.19
2022-09-14T15:30:12.452Z,97701.25
2022-09-14T15:32:40.492Z,97698.16
2022-09-14T15:35:10.143Z,97703.06
2022-09-14T15:37:36.956Z,97700.13
2022-09-14T15:40:04.751Z,97696.06
2022-09-14T15:42:31.672Z,97686.53
2022-09-14T15:44:58.442Z,97701.28
2022-09-14T15:47:25.424Z,97692.84
2022-09-14T15:49:55.246Z,97704.59
2022-09-14T15:52:22.071Z,97694.09
2022-09-14T15:54:49.330Z,97700.69
2022-09-14T15:57:16.320Z,97688.34
2022-09-14T15:59:43.217Z,97681.19
2022-09-14T16:02:12.462Z,97679.41
2022-09-14T16:04:39.736Z,97679.94
2022-09-14T16:07:10.050Z,97678.25
2022-09-14T16:09:38.963Z,97679.53
2022-09-14T16:12:07.000Z,97677.00
2022-09-14T16:14:34.164Z,97682.00
2022-09-14T16:17:01.630Z,97687.47
2022-09-14T16:19:28.985Z,97684.94
2022-09-14T16:21:55.908Z,97693.91
2022-09-14T16:24:24.545Z,97696.56
2022-09-14T16:26:51.585Z,97684.09
2022-09-14T16:29:20.154Z,97685.38
2022-09-14T16:31:48.662Z,97674.72
2022-09-14T16:34:24.525Z,97680.19
2022-09-14T16:36:52.072Z,97677.81
2022-09-14T16:39:25.280Z,97662.66
2022-09-14T16:41:55.660Z,97659.56
2022-09-14T16:44:24.959Z,97667.81
2022-09-14T16:46:52.343Z,97661.50
2022-09-14T16:49:24.807Z,97676.50
2022-09-14T16:51:53.711Z,97660.38
2022-09-14T16:54:22.227Z,97666.00
2022-09-14T16:56:49.263Z,97665.00
2022-09-14T16:59:17.888Z,97669.78
2022-09-14T17:01:49.681Z,97669.66
2022-09-14T17:04:23.692Z,97683.91
2022-09-14T17:06:52.167Z,97667.81
2022-09-14T17:09:29.937Z,97664.56
2022-09-14T17:11:57.868Z,97663.75
2022-09-14T17:14:28.380Z,97660.25
2022-09-14T17:16:55.680Z,97662.03
2022-09-14T17:19:23.128Z,97667.38
2022-09-14T17:21:50.355Z,97661.38
2022-09-14T17:24:18.924Z,97672.13
2022-09-14T17:26:46.711Z,97668.63
2022-09-14T17:29:15.277Z,97671.44
2022-09-14T17:31:43.523Z,97655.34
2022-09-14T17:34:12.431Z,97659.78
2022-09-14T17:36:39.826Z,97665.28
2022-09-14T17:39:11.786Z,97678.56
2022-09-14T17:41:40.661Z,97661.91
2022-09-14T17:44:09.808Z,97663.72
2022-09-14T17:46:41.378Z,97666.22
2022-09-14T17:49:14.097Z,97655.47
2022-09-14T17:51:41.019Z,97657.28
2022-09-14T17:54:08.034Z,97655.06
2022-09-14T17:56:35.220Z,97658.72
2022-09-14T17:59:10.063Z,97667.53
2022-09-14T18:01:37.363Z,97664.03
2022-09-14T18:04:07.317Z,97666.53
2022-09-14T18:06:37.492Z,97659.25
2022-09-14T18:09:07.971Z,97652.25
2022-09-14T18:11:36.405Z,97657.00
2022-09-14T18:14:04.723Z,97660.66
2022-09-14T18:16:33.129Z,97650.28
2022-09-14T18:19:00.349Z,97658.41
2022-09-14T18:21:27.386Z,97661.19
2022-09-14T18:23:55.387Z,97671.56
2022-09-14T18:26:23.728Z,97661.06
2022-09-14T18:28:53.582Z,97664.69
2022-09-14T18:31:20.662Z,97659.09
2022-09-14T18:33:59.472Z,97652.09
2022-09-14T18:36:29.460Z,97650.97
2022-09-14T18:38:57.249Z,97655.34
2022-09-14T18:41:24.023Z,97653.75
2022-09-14T18:43:52.851Z,97636.72
2022-09-14T18:46:23.431Z,97644.81
2022-09-14T18:48:56.788Z,97630.53
2022-09-14T18:51:23.798Z,97637.56
2022-09-14T18:53:57.211Z,97636.84
2022-09-14T18:56:24.961Z,97626.22
2022-09-14T18:58:51.909Z,97623.41
2022-09-14T19:01:18.881Z,97619.19
2022-09-14T19:03:46.183Z,97614.56
2022-09-14T19:06:14.964Z,97613.75
2022-09-14T19:08:42.871Z,97612.34
2022-09-14T19:11:12.902Z,97621.44
2022-09-14T19:13:40.133Z,97619.75
2022-09-14T19:16:08.622Z,97620.59
2022-09-14T19:18:36.174Z,97624.78
2022-09-14T19:21:09.180Z,97624.66
2022-09-14T19:23:37.269Z,97617.25
2022-09-14T19:26:09.790Z,97618.94
2022-09-14T19:28:37.560Z,97616.28
2022-09-14T19:31:09.176Z,97620.59
2022-09-14T19:33:36.117Z,97616.28
2022-09-14T19:36:05.376Z,97619.66
2022-09-14T19:38:32.459Z,97617.94
2022-09-14T19:40:59.754Z,97616.16
2022-09-14T19:43:27.195Z,97611.50
2022-09-14T19:45:54.304Z,97606.19
2022-09-14T19:48:21.143Z,97602.69
2022-09-14T19:50:47.895Z,97603.41
2022-09-14T19:53:14.882Z,97595.97
2022-09-14T19:55:41.769Z,97601.56
2022-09-14T19:58:08.516Z,97591.22
2022-09-14T20:00:36.481Z,97597.66
2022-09-14T20:03:03.943Z,97594.53
2022-09-14T20:05:30.887Z,97610.38
2022-09-14T20:07:57.909Z,97603.34
2022-09-14T20:10:26.660Z,97600.56
2022-09-14T20:12:54.315Z,97596.94
2022-09-14T20:15:21.290Z,97592.72
2022-09-14T20:17:48.044Z,97584.75
2022-09-14T20:20:17.296Z,97588.25
2022-09-14T20:22:44.344Z,97581.53
2022-09-14T20:25:11.192Z,97594.69
2022-09-14T20:27:38.002Z,97595.53
2022-09-14T20:30:06.982Z,97604.47
2022-09-14T20:32:33.793Z,97598.44
2022-09-14T20:35:00.603Z,97606.16
2022-09-14T20:37:28.627Z,97596.38
2022-09-14T20:39:55.585Z,97599.84
2022-09-14T20:42:22.384Z,97600.56
2022-09-14T20:44:49.374Z,97604.06
2022-09-14T20:47:16.138Z,97588.09
2022-09-14T20:49:42.942Z,97585.44
2022-09-14T20:52:09.954Z,97581.00
2022-09-14T20:54:36.978Z,97579.03
2022-09-14T20:57:04.722Z,97581.69
2022-09-14T20:59:31.886Z,97572.03
2022-09-14T21:02:02.300Z,97573.97
2022-09-14T21:04:31.570Z,97566.00
2022-09-14T21:06:58.543Z,97569.50
2022-09-14T21:09:26.189Z,97567.53
2022-09-14T21:11:53.557Z,97565.88
2022-09-14T21:14:21.272Z,97556.06
2022-09-14T21:16:51.823Z,97554.25
2022-09-14T21:19:25.522Z,97550.75
2022-09-14T21:21:53.415Z,97562.09
2022-09-14T21:24:22.223Z,97563.91
2022-09-14T21:26:49.479Z,97572.72
2022-09-14T21:29:20.909Z,97571.72
2022-09-14T21:31:48.887Z,97567.13
2022-09-14T21:34:16.438Z,97566.88
2022-09-14T21:36:49.202Z,97559.72
2022-09-14T21:39:21.524Z,97551.75
2022-09-14T21:41:53.458Z,97548.78
2022-09-14T21:44:28.254Z,97550.63
2022-09-14T21:46:55.204Z,97553.84
2022-09-14T21:49:22.055Z,97547.81
2022-09-14T21:51:49.116Z,97546.69
2022-09-14T21:54:16.285Z,97544.88
2022-09-14T21:56:45.233Z,97538.44
2022-09-14T21:59:15.146Z,97530.63
2022-09-14T22:01:43.018Z,97532.28
2022-09-14T22:04:14.981Z,97533.28
2022-09-14T22:06:41.840Z,97529.63
2022-09-14T22:09:08.800Z,97536.78
2022-09-14T22:11:37.296Z,97538.44
2022-09-14T22:14:11.002Z,97527.97
2022-09-14T22:16:38.447Z,97523.34
2022-09-14T22:19:26.913Z,97523.34
2022-09-14T22:21:54.837Z,97531.31
2022-09-14T22:24:28.221Z,97527.97
2022-09-14T22:26:57.397Z,97530.31
2022-09-14T22:29:24.883Z,97543.75
2022-09-14T22:31:52.428Z,97538.59
2022-09-14T22:34:21.237Z,97523.47
2022-09-14T22:36:48.062Z,97529.63
2022-09-14T22:39:14.860Z,97533.97
2022-09-14T22:41:42.382Z,97520.69
2022-09-14T22:44:09.162Z,97528.25
2022-09-14T22:46:36.201Z,97514.06
2022-09-14T22:49:03.820Z,97522.06
2022-09-14T22:51:31.577Z,97529.06
2022-09-14T22:53:58.690Z,97520.25
2022-09-14T22:56:31.735Z,97534.22
2022-09-14T22:59:00.267Z,97525.28
2022-09-14T23:01:31.825Z,97524.44
2022-09-14T23:04:05.776Z,97530.72
2022-09-14T23:06:41.928Z,97525.16
2022-09-14T23:09:11.211Z,97518.00
2022-09-14T23:11:38.501Z,97521.50
2022-09-14T23:14:05.336Z,97517.00
2022-09-14T23:16:32.234Z,97505.66
2022-09-14T23:19:01.238Z,97509.03
2022-09-14T23:21:29.513Z,97505.53
2022-09-14T23:24:00.342Z,97507.38
2022-09-14T23:26:28.409Z,97498.25
2022-09-14T23:28:58.548Z,97491.94
2022-09-14T23:31:26.922Z,97494.59
2022-09-14T23:33:56.290Z,97491.09
2022-09-14T23:36:24.228Z,97483.28
2022-09-14T23:38:51.997Z,97490.13
2022-09-14T23:41:20.779Z,97484.81
2022-09-14T23:43:48.095Z,97480.47
2022-09-14T23:46:15.739Z,97479.63
2022-09-14T23:48:42.967Z,97466.31
2022-09-14T23:51:11.159Z,97466.31
2022-09-14T23:53:38.801Z,97462.66
2022-09-14T23:56:06.474Z,97456.53
2022-09-14T23:58:33.319Z,97450.38
